UT08 weather

Primary Childrens Medical Center Heliport
Salt Lake City, Utah, United States

Public forecast

Using degrees Fahrenheit for public forecast. Weather courtesy of forecast.io.

Closest aviation weather report (METAR) to Primary Childrens Medical Center Heliport

Closest report is Salt Lake City International Airport, 6.4 nm (11.9 km) W. Retrieved 2020/06/04 22:54 UTC (46 minutes ago):

KSLC 042254Z 02008KT 10SM FEW095 FEW140 BKN180 BKN240 31/02 A2990 RMK AO2 SLP065 VIRGA T03110017

Closest aviation forecast (TAF) to Primary Childrens Medical Center Heliport

Closest forecast is Salt Lake City International Airport, 6.4 nm (11.9 km) W. Retrieved 2020/06/04 18:40 UTC (5 hours ago):

TAF KSLC 041738Z 0418/0524 32010KT P6SM FEW120 FM050300 16008KT P6SM SCT120 FM051900 18012G20KT P6SM SCT120